Time;durP1;ratioP1;P1;durP2;ratioP2;P2;SDS_P1;SDS_P2;PMS_P1;PMS_P2;Temp;Humidity;BMP_temperature;BMP_pressure;BME280_temperature;BME280_humidity;BME280_pressure;Samples;Min_cycle;Max_cycle;Signal;HPM_P1;HPM_P2
2023/02/11 00:00:58;;;;;;;206.52;88.78;;;;;;;;;;6315554;22;20436;-96
2023/02/11 00:03:25;;;;;;;178.63;78.25;;;;;;;;;;6315288;22;20036;-92
2023/02/11 00:05:58;;;;;;;160.18;68.72;;;;;;;;;;6314608;22;20424;-95
2023/02/11 00:08:24;;;;;;;133.18;57.00;;;;;;;;;;6312766;22;20090;-93
2023/02/11 00:10:56;;;;;;;112.70;48.50;;;;;;;;;;6341046;22;20006;-94
2023/02/11 00:13:22;;;;;;;118.05;48.78;;;;;;;;;;6313767;22;20060;-96
2023/02/11 00:15:49;;;;;;;124.88;51.45;;;;;;;;;;6312954;22;20003;-94
2023/02/11 00:18:15;;;;;;;130.07;51.05;;;;;;;;;;6313940;22;20325;-94
2023/02/11 00:20:42;;;;;;;115.85;47.88;;;;;;;;;;6313290;22;20011;-96
2023/02/11 00:23:08;;;;;;;107.90;46.78;;;;;;;;;;6313295;22;20022;-95
2023/02/11 00:25:38;;;;;;;125.60;53.83;;;;;;;;;;6324919;22;19995;-93
2023/02/11 00:28:05;;;;;;;117.03;50.45;;;;;;;;;;6338569;22;19998;-94
2023/02/11 00:30:32;;;;;;;126.53;51.15;;;;;;;;;;6362450;22;19988;-94
2023/02/11 00:32:58;;;;;;;115.80;50.10;;;;;;;;;;6348636;22;20033;-95
2023/02/11 00:35:25;;;;;;;123.38;50.80;;;;;;;;;;6315101;22;20002;-95
2023/02/11 00:37:55;;;;;;;125.90;51.28;;;;;;;;;;6348562;22;19983;-94
2023/02/11 00:40:24;;;;;;;150.10;57.42;;;;;;;;;;6320502;22;20003;-95
2023/02/11 00:42:51;;;;;;;129.98;56.40;;;;;;;;;;6336694;22;20010;-93
2023/02/11 00:45:19;;;;;;;132.35;55.15;;;;;;;;;;6307733;22;20022;-96
2023/02/11 00:47:46;;;;;;;197.77;80.70;;;;;;;;;;6316513;22;20112;-92
2023/02/11 00:50:12;;;;;;;218.77;94.65;;;;;;;;;;6317237;22;20085;-95
2023/02/11 00:52:40;;;;;;;214.27;101.03;;;;;;;;;;6343477;22;20007;-95
2023/02/11 00:55:07;;;;;;;259.42;121.10;;;;;;;;;;6290969;22;20037;-95
2023/02/11 00:57:33;;;;;;;200.95;94.10;;;;;;;;;;6291981;22;20104;-96
2023/02/11 00:59:59;;;;;;;162.35;75.10;;;;;;;;;;6317922;22;20447;-96
2023/02/11 01:02:27;;;;;;;164.77;73.97;;;;;;;;;;6317150;22;20006;-96
2023/02/11 01:04:54;;;;;;;137.50;60.78;;;;;;;;;;6316862;22;20010;-96
2023/02/11 01:07:20;;;;;;;157.60;68.00;;;;;;;;;;6316847;22;20015;-96
2023/02/11 01:09:47;;;;;;;172.70;69.55;;;;;;;;;;6344711;22;20006;-95
2023/02/11 01:12:13;;;;;;;206.48;78.95;;;;;;;;;;6317960;22;20062;-95
2023/02/11 01:14:40;;;;;;;185.30;72.72;;;;;;;;;;6317409;22;20071;-96
2023/02/11 01:17:08;;;;;;;192.52;78.82;;;;;;;;;;6345426;22;20003;-94
2023/02/11 01:19:38;;;;;;;189.27;80.18;;;;;;;;;;6318946;22;20395;-96
2023/02/11 01:22:06;;;;;;;202.43;82.60;;;;;;;;;;6346555;22;20014;-96
2023/02/11 01:24:32;;;;;;;182.23;76.55;;;;;;;;;;6320382;22;20018;-96
2023/02/11 01:27:02;;;;;;;133.02;52.83;;;;;;;;;;6320495;22;20053;-95
2023/02/11 01:29:28;;;;;;;133.13;58.58;;;;;;;;;;6293109;22;20088;-95
2023/02/11 01:31:57;;;;;;;133.23;56.40;;;;;;;;;;6345774;22;20002;-96
2023/02/11 01:34:23;;;;;;;131.52;58.45;;;;;;;;;;6318782;22;20014;-94
2023/02/11 01:36:50;;;;;;;194.98;82.22;;;;;;;;;;6321994;22;19998;-96
2023/02/11 01:39:29;;;;;;;;;;;;;;;;;;;;;
2023/02/11 01:41:56;;;;;;;122.10;56.83;;;;;;;;;;6279292;22;20038;-92
2023/02/11 01:44:25;;;;;;;126.45;56.65;;;;;;;;;;6319321;22;20058;-96
2023/02/11 01:46:57;;;;;;;145.95;63.22;;;;;;;;;;6348836;22;20015;-95
2023/02/11 01:49:28;;;;;;;153.50;62.65;;;;;;;;;;6319268;22;20081;-94
2023/02/11 01:51:57;;;;;;;162.60;65.28;;;;;;;;;;6319229;22;20058;-95
2023/02/11 01:57:26;;;;;;;158.45;60.13;;;;;;;;;;6325121;22;20037;-96
2023/02/11 01:59:53;;;;;;;;;;;;;;;;;;6346055;22;20127;-96
2023/02/11 02:02:23;;;;;;;137.65;55.97;;;;;;;;;;6348168;22;19932;-95
2023/02/11 02:04:55;;;;;;;185.13;66.90;;;;;;;;;;6318560;22;20125;-96
2023/02/11 02:07:33;;;;;;;145.60;58.35;;;;;;;;;;6319242;22;20010;-95
2023/02/11 02:10:03;;;;;;;153.18;62.47;;;;;;;;;;6290856;22;20003;-95
2023/02/11 02:12:30;;;;;;;138.13;56.67;;;;;;;;;;6344376;22;20038;-96
2023/02/11 02:15:11;;;;;;;135.57;55.28;;;;;;;;;;6313289;22;20090;-95
2023/02/11 02:17:42;;;;;;;117.25;48.45;;;;;;;;;;6345366;22;20025;-96
2023/02/11 02:20:30;;;;;;;156.43;56.25;;;;;;;;;;6349773;22;19998;-92
2023/02/11 02:22:59;;;;;;;187.02;75.07;;;;;;;;;;6336795;22;20003;-93
2023/02/11 02:25:48;;;;;;;174.18;66.65;;;;;;;;;;6322577;22;20100;-95
2023/02/11 02:28:31;;;;;;;140.82;58.55;;;;;;;;;;6255370;23;20008;-94
2023/02/11 02:30:58;;;;;;;157.80;62.30;;;;;;;;;;6227465;23;20452;-95
2023/02/11 02:33:31;;;;;;;119.78;50.83;;;;;;;;;;6249001;23;20043;-95
2023/02/11 02:36:16;;;;;;;128.20;52.33;;;;;;;;;;6224270;23;20098;-96
2023/02/11 02:38:45;;;;;;;142.85;57.45;;;;;;;;;;6223043;23;20008;-96
2023/02/11 02:41:16;;;;;;;181.48;66.35;;;;;;;;;;6221907;23;20017;-96
2023/02/11 02:43:45;;;;;;;209.35;76.38;;;;;;;;;;6222761;23;20159;-94
2023/02/11 02:46:12;;;;;;;179.38;67.32;;;;;;;;;;6223184;23;20027;-93
2023/02/11 02:48:38;;;;;;;157.20;63.13;;;;;;;;;;6222210;23;20004;-93
2023/02/11 02:51:24;;;;;;;157.77;60.90;;;;;;;;;;6222486;23;20070;-95
2023/02/11 02:54:09;;;;;;;130.18;50.03;;;;;;;;;;6297862;22;20034;-95
2023/02/11 02:56:47;;;;;;;121.43;49.55;;;;;;;;;;6310114;22;20018;-95
2023/02/11 02:59:27;;;;;;;126.80;48.42;;;;;;;;;;6324682;22;19991;-93
2023/02/11 03:02:20;;;;;;;128.60;50.13;;;;;;;;;;6365003;22;20037;-94
2023/02/11 03:04:53;;;;;;;125.95;49.80;;;;;;;;;;6329329;22;20030;-94
2023/02/11 03:07:37;;;;;;;104.45;43.67;;;;;;;;;;6345338;22;20037;-95
2023/02/11 03:10:12;;;;;;;126.80;50.13;;;;;;;;;;6318724;22;20003;-94
2023/02/11 03:12:39;;;;;;;131.82;47.40;;;;;;;;;;6318623;22;20003;-95
2023/02/11 03:15:08;;;;;;;123.75;48.28;;;;;;;;;;6318987;22;19999;-96
2023/02/11 03:17:35;;;;;;;123.57;48.63;;;;;;;;;;6345507;22;20473;-95
2023/02/11 03:20:04;;;;;;;122.78;49.50;;;;;;;;;;6319609;22;20007;-96
2023/02/11 03:22:42;;;;;;;112.30;44.58;;;;;;;;;;6320612;22;20018;-93
2023/02/11 03:25:09;;;;;;;103.47;41.92;;;;;;;;;;6319693;22;20006;-95
2023/02/11 03:27:55;;;;;;;100.72;43.40;;;;;;;;;;6320037;22;20151;-94
2023/02/11 03:30:25;;;;;;;121.20;46.72;;;;;;;;;;6317834;22;20034;-96
2023/02/11 03:33:00;;;;;;;120.55;48.22;;;;;;;;;;6349107;22;20041;-94
2023/02/11 03:35:43;;;;;;;120.07;46.75;;;;;;;;;;6348246;22;20006;-95
2023/02/11 03:38:16;;;;;;;103.28;42.25;;;;;;;;;;6317580;22;20025;-95
2023/02/11 03:40:44;;;;;;;111.00;44.92;;;;;;;;;;6318398;22;20006;-95
2023/02/11 03:43:16;;;;;;;121.63;47.05;;;;;;;;;;6317263;22;20070;-96
2023/02/11 03:45:44;;;;;;;134.10;50.15;;;;;;;;;;6318816;22;20079;-96
2023/02/11 03:48:21;;;;;;;126.35;49.35;;;;;;;;;;6316748;22;20533;-93
2023/02/11 03:50:49;;;;;;;128.48;50.38;;;;;;;;;;6345426;22;19998;-95
2023/02/11 03:53:21;;;;;;;144.40;55.05;;;;;;;;;;6316192;22;20006;-96
2023/02/11 03:55:48;;;;;;;125.63;48.60;;;;;;;;;;6316522;22;20017;-94
2023/02/11 03:58:16;;;;;;;107.25;44.67;;;;;;;;;;6293964;22;20011;-93
2023/02/11 04:00:43;;;;;;;120.75;46.75;;;;;;;;;;6364720;22;20014;-94
2023/02/11 04:03:12;;;;;;;104.07;44.33;;;;;;;;;;6355056;22;20019;-96
2023/02/11 04:05:39;;;;;;;110.80;45.08;;;;;;;;;;6292873;22;20025;-93
2023/02/11 04:08:05;;;;;;;106.90;42.65;;;;;;;;;;6319484;22;20757;-93
2023/02/11 04:10:31;;;;;;;112.05;44.15;;;;;;;;;;6317946;22;20219;-96
2023/02/11 04:12:58;;;;;;;104.15;43.78;;;;;;;;;;6290656;22;20021;-94
2023/02/11 04:15:25;;;;;;;109.32;45.15;;;;;;;;;;6345514;22;19998;-96
2023/02/11 04:17:51;;;;;;;111.35;44.80;;;;;;;;;;6320856;22;20085;-96
2023/02/11 04:20:18;;;;;;;111.70;47.58;;;;;;;;;;6293124;22;20029;-95
2023/02/11 04:22:44;;;;;;;128.10;51.15;;;;;;;;;;6316367;22;20015;-96
2023/02/11 04:25:11;;;;;;;135.77;52.38;;;;;;;;;;6317460;22;19999;-96
2023/02/11 04:27:38;;;;;;;136.32;52.05;;;;;;;;;;6321024;22;20011;-96
2023/02/11 04:30:06;;;;;;;129.10;52.15;;;;;;;;;;6291900;22;20432;-96
2023/02/11 04:32:36;;;;;;;120.35;48.47;;;;;;;;;;6321190;22;20013;-94
2023/02/11 04:35:06;;;;;;;117.22;47.63;;;;;;;;;;6318850;22;20003;-95
2023/02/11 04:37:43;;;;;;;113.47;45.55;;;;;;;;;;6319586;22;20002;-93
2023/02/11 04:40:10;;;;;;;107.20;42.58;;;;;;;;;;6317652;22;20003;-96
2023/02/11 04:42:56;;;;;;;108.13;41.65;;;;;;;;;;6324870;22;20033;-96
2023/02/11 04:45:24;;;;;;;107.72;42.88;;;;;;;;;;6314320;22;20019;-94
2023/02/11 04:47:51;;;;;;;107.85;42.53;;;;;;;;;;6318263;22;20011;-94
2023/02/11 04:50:21;;;;;;;101.28;41.63;;;;;;;;;;6316745;22;20018;-94
2023/02/11 04:52:48;;;;;;;131.15;48.25;;;;;;;;;;6317876;22;19999;-96
2023/02/11 04:55:20;;;;;;;111.53;45.30;;;;;;;;;;6344242;22;20002;-93
2023/02/11 04:57:50;;;;;;;98.95;41.35;;;;;;;;;;6318381;22;20002;-96
2023/02/11 05:00:16;;;;;;;137.77;49.70;;;;;;;;;;6292916;22;20037;-96
2023/02/11 05:02:43;;;;;;;112.45;44.85;;;;;;;;;;6290342;22;20023;-95
2023/02/11 05:05:11;;;;;;;149.88;55.25;;;;;;;;;;6316958;22;20017;-95
2023/02/11 05:07:37;;;;;;;144.50;54.13;;;;;;;;;;6318405;22;20033;-94
2023/02/11 05:10:05;;;;;;;132.88;54.10;;;;;;;;;;6292402;22;20424;-96
2023/02/11 05:12:31;;;;;;;127.60;56.03;;;;;;;;;;6317783;22;20015;-96
2023/02/11 05:15:04;;;;;;;151.88;59.08;;;;;;;;;;6292018;22;20010;-94
2023/02/11 05:17:30;;;;;;;166.40;65.77;;;;;;;;;;6315070;22;20002;-96
2023/02/11 05:19:56;;;;;;;166.82;61.72;;;;;;;;;;6290598;22;20080;-96
2023/02/11 05:22:26;;;;;;;167.48;63.97;;;;;;;;;;6315584;22;20022;-93
2023/02/11 05:24:54;;;;;;;157.43;59.83;;;;;;;;;;6343819;22;20479;-95
2023/02/11 05:27:22;;;;;;;139.95;56.45;;;;;;;;;;6345157;22;20003;-95
2023/02/11 05:29:59;;;;;;;150.43;58.80;;;;;;;;;;6346790;22;20010;-96
2023/02/11 05:40:56;;;;;;;181.60;72.50;;;;;;;;;;6324545;22;20224;-96
2023/02/11 05:47:08;;;;;;;148.55;60.63;;;;;;;;;;6291010;22;20078;-93
2023/02/11 05:49:52;;;;;;;128.35;53.50;;;;;;;;;;6278510;22;20039;-95
2023/02/11 05:52:46;;;;;;;;;;;;;;;;;;;;;
2023/02/11 05:58:08;;;;;;;133.63;53.08;;;;;;;;;;6277590;22;20035;-93
2023/02/11 06:00:39;;;;;;;130.13;52.53;;;;;;;;;;6277170;22;20011;-96
2023/02/11 06:03:05;;;;;;;129.68;51.33;;;;;;;;;;6287068;22;19995;-94
2023/02/11 06:05:32;;;;;;;119.82;51.83;;;;;;;;;;6289364;22;19999;-93
2023/02/11 06:07:58;;;;;;;120.70;51.55;;;;;;;;;;6253923;22;20010;-96
2023/02/11 06:10:24;;;;;;;118.63;49.30;;;;;;;;;;6253792;22;20057;-96
2023/02/11 06:12:50;;;;;;;120.05;51.72;;;;;;;;;;6278722;22;20004;-94
2023/02/11 06:15:19;;;;;;;124.43;51.88;;;;;;;;;;6277223;22;20004;-93
2023/02/11 06:18:04;;;;;;;109.43;47.70;;;;;;;;;;6276794;22;20087;-94
2023/02/11 06:20:55;;;;;;;115.55;48.50;;;;;;;;;;6284159;22;20003;-95
2023/02/11 06:23:52;;;;;;;104.25;45.17;;;;;;;;;;6318642;22;20121;-95
2023/02/11 06:26:30;;;;;;;108.93;47.03;;;;;;;;;;6317741;22;20033;-96
2023/02/11 06:31:54;;;;;;;118.57;46.97;;;;;;;;;;6349947;22;20432;-95
2023/02/11 06:34:42;;;;;;;122.13;49.10;;;;;;;;;;6315791;22;20089;-95
2023/02/11 06:37:38;;;;;;;122.28;50.63;;;;;;;;;;6308844;22;20348;-96
2023/02/11 06:40:43;;;;;;;111.35;47.10;;;;;;;;;;6254848;22;20063;-95
2023/02/11 06:46:04;;;;;;;106.70;46.90;;;;;;;;;;6245249;23;20056;-96
2023/02/11 06:51:54;;;;;;;115.38;47.22;;;;;;;;;;6195779;23;20045;-96
2023/02/11 06:54:23;;;;;;;124.10;55.87;;;;;;;;;;6197147;23;20034;-96
2023/02/11 06:56:49;;;;;;;170.05;63.45;;;;;;;;;;6253413;22;20234;-94
2023/02/11 06:59:19;;;;;;;112.95;46.33;;;;;;;;;;6261089;22;20007;-95
2023/02/11 07:01:49;;;;;;;102.63;46.50;;;;;;;;;;6285125;22;20012;-96
2023/02/11 07:04:16;;;;;;;105.60;46.30;;;;;;;;;;6257888;22;20090;-95
2023/02/11 07:06:47;;;;;;;100.47;44.25;;;;;;;;;;6259539;22;20000;-96
2023/02/11 07:09:17;;;;;;;111.78;47.63;;;;;;;;;;6285642;22;20418;-96
2023/02/11 07:11:43;;;;;;;104.82;45.08;;;;;;;;;;6255789;22;20000;-95
2023/02/11 07:14:12;;;;;;;104.25;48.13;;;;;;;;;;6288221;22;20002;-94
2023/02/11 07:16:40;;;;;;;104.03;48.35;;;;;;;;;;6336557;22;20176;-93
2023/02/11 07:19:06;;;;;;;99.90;45.10;;;;;;;;;;6329128;22;20067;-94
2023/02/11 07:21:35;;;;;;;94.35;43.78;;;;;;;;;;6342830;22;19995;-94
2023/02/11 07:24:01;;;;;;;111.45;52.17;;;;;;;;;;6316448;22;20432;-94
2023/02/11 07:26:30;;;;;;;93.47;45.63;;;;;;;;;;6345442;22;20054;-95
2023/02/11 07:28:58;;;;;;;88.00;42.15;;;;;;;;;;6316715;22;20007;-93
2023/02/11 07:31:26;;;;;;;83.10;42.00;;;;;;;;;;6318092;22;20157;-93
2023/02/11 07:33:56;;;;;;;93.07;43.45;;;;;;;;;;6318840;22;20082;-93
2023/02/11 07:36:53;;;;;;;85.07;43.65;;;;;;;;;;6314874;22;20056;-94
2023/02/11 07:39:20;;;;;;;93.65;45.25;;;;;;;;;;6155564;22;20037;-93
2023/02/11 07:41:49;;;;;;;88.07;43.95;;;;;;;;;;6279900;22;20092;-94
2023/02/11 07:44:27;;;;;;;89.63;45.70;;;;;;;;;;6284477;22;20007;-96
2023/02/11 07:46:53;;;;;;;97.32;46.75;;;;;;;;;;6285620;22;20388;-95
2023/02/11 07:49:20;;;;;;;92.57;46.97;;;;;;;;;;6284172;22;20425;-94
2023/02/11 07:51:47;;;;;;;89.95;45.58;;;;;;;;;;6270545;22;20018;-93
2023/02/11 07:54:14;;;;;;;90.15;44.28;;;;;;;;;;6291052;22;20007;-93
2023/02/11 07:56:40;;;;;;;96.82;46.90;;;;;;;;;;6286403;22;20003;-93
2023/02/11 07:59:09;;;;;;;91.78;46.53;;;;;;;;;;6286750;22;20011;-96
2023/02/11 08:01:36;;;;;;;99.97;48.47;;;;;;;;;;6261052;22;20007;-93
2023/02/11 08:04:04;;;;;;;92.28;46.15;;;;;;;;;;6287319;22;20037;-95
2023/02/11 08:06:56;;;;;;;107.20;49.60;;;;;;;;;;6307516;22;19999;-92
2023/02/11 08:09:22;;;;;;;107.30;49.75;;;;;;;;;;6306740;22;19992;-94
2023/02/11 08:11:48;;;;;;;94.53;47.28;;;;;;;;;;6295607;22;20102;-94
2023/02/11 08:14:17;;;;;;;102.40;50.25;;;;;;;;;;6284298;22;20084;-94
2023/02/11 08:16:43;;;;;;;106.90;51.83;;;;;;;;;;6260172;22;20057;-95
2023/02/11 08:19:17;;;;;;;96.38;47.55;;;;;;;;;;6312758;22;20007;-95
2023/02/11 08:21:48;;;;;;;103.82;49.33;;;;;;;;;;6288796;22;20022;-96
2023/02/11 08:24:15;;;;;;;95.40;46.28;;;;;;;;;;6307876;22;20011;-94
2023/02/11 08:26:42;;;;;;;98.22;47.00;;;;;;;;;;6260302;22;20007;-94
2023/02/11 08:29:09;;;;;;;95.65;46.45;;;;;;;;;;6286131;22;20055;-96
2023/02/11 08:31:37;;;;;;;105.53;47.45;;;;;;;;;;6282944;22;19999;-95
2023/02/11 08:34:05;;;;;;;99.70;47.45;;;;;;;;;;6282770;22;20051;-94
2023/02/11 08:36:35;;;;;;;110.38;51.70;;;;;;;;;;6287045;22;20059;-96
2023/02/11 08:39:03;;;;;;;103.50;49.80;;;;;;;;;;6283870;22;20034;-95
2023/02/11 08:41:34;;;;;;;98.43;48.85;;;;;;;;;;6283426;22;19999;-93
2023/02/11 08:44:01;;;;;;;121.15;56.90;;;;;;;;;;6283341;22;20037;-96
2023/02/11 08:46:28;;;;;;;109.95;51.35;;;;;;;;;;6311603;22;20014;-96
2023/02/11 08:48:58;;;;;;;105.50;51.03;;;;;;;;;;6310552;22;20440;-95
2023/02/11 08:51:26;;;;;;;108.85;50.80;;;;;;;;;;6312384;22;20075;-94
2023/02/11 08:53:55;;;;;;;103.97;50.17;;;;;;;;;;6293876;22;20006;-93
2023/02/11 08:56:27;;;;;;;100.28;48.70;;;;;;;;;;6325785;22;20063;-96
2023/02/11 08:59:08;;;;;;;103.28;49.85;;;;;;;;;;6287577;22;20007;-96
2023/02/11 09:01:34;;;;;;;116.20;54.78;;;;;;;;;;6305493;22;20003;-95
2023/02/11 09:04:09;;;;;;;112.22;53.40;;;;;;;;;;6311544;22;20015;-95
2023/02/11 09:06:38;;;;;;;133.18;62.30;;;;;;;;;;6313139;22;20003;-96
2023/02/11 09:09:12;;;;;;;119.13;57.80;;;;;;;;;;6287213;22;20007;-96
2023/02/11 09:11:55;;;;;;;108.88;54.25;;;;;;;;;;6286806;22;19999;-96
2023/02/11 09:14:34;;;;;;;135.48;64.90;;;;;;;;;;6287326;22;20091;-95
2023/02/11 09:17:01;;;;;;;130.70;62.58;;;;;;;;;;6315666;22;20014;-92
2023/02/11 09:19:39;;;;;;;124.35;61.15;;;;;;;;;;6289029;22;20011;-96
2023/02/11 09:22:05;;;;;;;113.53;54.45;;;;;;;;;;6289328;22;20025;-94
2023/02/11 09:24:35;;;;;;;101.68;51.25;;;;;;;;;;6288143;22;20119;-96
2023/02/11 09:27:11;;;;;;;92.53;47.83;;;;;;;;;;6315522;22;20095;-96
2023/02/11 09:29:41;;;;;;;97.85;49.60;;;;;;;;;;6287280;22;20033;-94
2023/02/11 09:32:12;;;;;;;90.70;47.58;;;;;;;;;;6293270;22;20041;-95
2023/02/11 09:34:48;;;;;;;93.93;52.17;;;;;;;;;;6293339;22;20003;-95
2023/02/11 09:37:58;;;;;;;97.50;56.30;;;;;;;;;;6329303;22;20051;-96
2023/02/11 09:43:07;;;;;;;85.82;53.38;;;;;;;;;;6320829;22;20031;-93
2023/02/11 09:46:07;;;;;;;;;;;;;;;;;;;;;
2023/02/11 09:49:04;;;;;;;;;;;;;;;;;;;;;
2023/02/11 09:51:54;;;;;;;96.75;60.92;;;;;;;;;;6316020;22;20039;-94
2023/02/11 09:54:41;;;;;;;88.75;56.40;;;;;;;;;;6286828;22;20004;-95
2023/02/11 09:57:09;;;;;;;102.47;63.08;;;;;;;;;;6295016;22;20034;-93
2023/02/11 09:59:36;;;;;;;91.60;57.50;;;;;;;;;;6292467;22;20014;-93
2023/02/11 10:02:09;;;;;;;84.43;54.10;;;;;;;;;;6292883;22;19999;-93
2023/02/11 10:04:52;;;;;;;79.28;50.50;;;;;;;;;;6290531;22;20007;-95
2023/02/11 10:07:40;;;;;;;83.85;52.60;;;;;;;;;;6291198;22;19999;-96
2023/02/11 10:10:25;;;;;;;80.65;52.28;;;;;;;;;;6289797;22;20007;-96
2023/02/11 10:13:34;;;;;;;;;;;;;;;;;;;;;
2023/02/11 10:16:11;;;;;;;79.72;49.90;;;;;;;;;;6325755;22;20003;-94
2023/02/11 10:18:55;;;;;;;55.50;35.47;;;;;;;;;;6321040;22;20014;-96
2023/02/11 10:21:21;;;;;;;43.00;26.92;;;;;;;;;;6316501;22;20010;-93
2023/02/11 10:23:54;;;;;;;38.20;26.23;;;;;;;;;;6329930;22;20014;-96
2023/02/11 10:26:29;;;;;;;37.15;28.30;;;;;;;;;;6324807;22;20003;-94
2023/02/11 10:29:38;;;;;;;63.22;48.80;;;;;;;;;;6326668;22;20018;-95
2023/02/11 10:32:17;;;;;;;64.45;49.08;;;;;;;;;;6331572;22;20010;-92
2023/02/11 10:50:43;;;;;;;62.40;47.92;;;;;;;;;;6349304;22;20019;-93
2023/02/11 10:53:18;;;;;;;62.95;47.92;;;;;;;;;;6329624;22;20054;-92
2023/02/11 10:55:57;;;;;;;64.90;46.75;;;;;;;;;;6293021;22;20774;-92
2023/02/11 10:59:00;;;;;;;68.07;50.35;;;;;;;;;;6325742;22;20481;-93
2023/02/11 11:01:40;;;;;;;63.83;48.72;;;;;;;;;;6311357;22;20011;-92
2023/02/11 11:04:06;;;;;;;62.63;47.83;;;;;;;;;;6268037;22;20031;-91
2023/02/11 11:06:41;;;;;;;39.30;29.60;;;;;;;;;;6321145;22;20095;-92
2023/02/11 11:09:43;;;;;;;35.30;23.35;;;;;;;;;;6347206;22;20293;-91
2023/02/11 11:12:28;;;;;;;31.95;24.50;;;;;;;;;;6326260;22;20003;-92
2023/02/11 11:15:25;;;;;;;35.00;25.08;;;;;;;;;;6356359;22;20027;-95
2023/02/11 11:18:08;;;;;;;35.97;25.75;;;;;;;;;;6174226;23;20095;-93
2023/02/11 11:26:40;;;;;;;34.03;25.15;;;;;;;;;;6207665;22;20316;-91
2023/02/11 11:34:42;;;;;;;34.55;23.13;;;;;;;;;;6318455;22;20019;-93
2023/02/11 11:37:11;;;;;;;30.73;21.92;;;;;;;;;;6268818;22;20003;-96
2023/02/11 11:39:38;;;;;;;31.17;22.35;;;;;;;;;;6287815;22;20327;-94
2023/02/11 11:42:50;;;;;;;35.15;24.70;;;;;;;;;;6296029;22;20008;-93
2023/02/11 11:45:33;;;;;;;33.80;24.05;;;;;;;;;;6146049;23;20021;-92
2023/02/11 11:48:10;;;;;;;33.17;24.38;;;;;;;;;;6140782;23;20012;-93
2023/02/11 11:51:04;;;;;;;35.35;24.17;;;;;;;;;;6238174;22;20007;-95
2023/02/11 11:53:33;;;;;;;;;;;;;;;;;;6285032;22;20003;-95
2023/02/11 11:56:21;;;;;;;34.40;23.20;;;;;;;;;;6294005;22;19907;-93
2023/02/11 11:58:51;;;;;;;31.33;22.52;;;;;;;;;;6307422;22;20524;-93
2023/02/11 12:01:37;;;;;;;31.60;22.10;;;;;;;;;;6323671;22;20017;-93
2023/02/11 12:04:16;;;;;;;31.10;22.13;;;;;;;;;;6321587;22;20011;-95
2023/02/11 12:07:33;;;;;;;36.60;23.35;;;;;;;;;;6318954;22;20424;-92
2023/02/11 12:10:26;;;;;;;34.38;23.98;;;;;;;;;;6173360;23;20001;-95
2023/02/11 12:13:01;;;;;;;33.67;23.20;;;;;;;;;;6181603;23;20045;-92
2023/02/11 12:15:46;;;;;;;33.45;24.40;;;;;;;;;;6178164;23;20013;-92
2023/02/11 12:18:41;;;;;;;34.40;23.85;;;;;;;;;;6196431;23;20009;-94
2023/02/11 12:21:29;;;;;;;37.05;25.52;;;;;;;;;;6174580;23;20131;-94
2023/02/11 12:24:13;;;;;;;33.47;24.73;;;;;;;;;;6173245;23;20023;-94
2023/02/11 12:27:16;;;;;;;32.80;23.90;;;;;;;;;;6192339;22;20035;-94
2023/02/11 12:30:26;;;;;;;34.17;23.48;;;;;;;;;;6353808;22;20064;-93
2023/02/11 12:32:56;;;;;;;32.17;23.33;;;;;;;;;;6329440;22;20027;-93
2023/02/11 12:35:50;;;;;;;36.03;25.55;;;;;;;;;;6355598;22;20003;-93
2023/02/11 12:39:20;;;;;;;35.33;23.77;;;;;;;;;;6332426;22;20053;-92
2023/02/11 12:45:35;;;;;;;33.30;22.20;;;;;;;;;;6354931;22;20052;-96
2023/02/11 12:48:07;;;;;;;35.17;23.25;;;;;;;;;;6269114;22;20006;-93
2023/02/11 12:50:55;;;;;;;32.08;22.05;;;;;;;;;;6325059;22;20003;-95
2023/02/11 12:57:01;;;;;;;32.53;22.15;;;;;;;;;;6250376;23;20008;-93
2023/02/11 12:59:45;;;;;;;32.10;23.77;;;;;;;;;;6206141;23;20020;-94
2023/02/11 13:02:26;;;;;;;32.08;21.92;;;;;;;;;;6233565;23;20008;-96
2023/02/11 13:05:13;;;;;;;28.85;22.08;;;;;;;;;;6229052;23;20083;-93
2023/02/11 13:07:43;;;;;;;32.53;22.27;;;;;;;;;;6341618;22;20010;-93
2023/02/11 13:10:29;;;;;;;34.70;23.73;;;;;;;;;;6327938;22;19999;-95
2023/02/11 13:13:16;;;;;;;34.33;22.30;;;;;;;;;;6352029;22;20030;-93
2023/02/11 13:16:12;;;;;;;35.75;22.33;;;;;;;;;;6327074;22;20004;-92
2023/02/11 13:18:48;;;;;;;35.90;22.55;;;;;;;;;;6331118;22;20007;-93
2023/02/11 13:21:22;;;;;;;32.67;21.65;;;;;;;;;;6358326;22;20017;-93
2023/02/11 13:24:07;;;;;;;33.22;23.35;;;;;;;;;;6324084;22;20121;-92
2023/02/11 13:26:57;;;;;;;31.40;22.45;;;;;;;;;;6324499;22;20003;-94
2023/02/11 13:29:31;;;;;;;32.10;22.95;;;;;;;;;;6327835;22;20018;-90
2023/02/11 13:32:33;;;;;;;31.80;23.05;;;;;;;;;;6317683;22;20002;-92
2023/02/11 13:38:55;;;;;;;35.60;22.45;;;;;;;;;;6358368;22;20007;-94
2023/02/11 13:44:26;;;;;;;37.15;22.20;;;;;;;;;;6358266;22;20028;-92
2023/02/11 13:47:05;;;;;;;32.65;22.38;;;;;;;;;;6326096;22;20012;-94
2023/02/11 13:50:08;;;;;;;31.50;21.05;;;;;;;;;;6324532;22;20103;-95
2023/02/11 13:55:08;;;;;;;32.67;21.42;;;;;;;;;;6360187;22;20130;-93
2023/02/11 13:57:36;;;;;;;34.17;22.25;;;;;;;;;;6320641;22;20006;-92
2023/02/11 14:00:22;;;;;;;30.73;21.00;;;;;;;;;;6332267;22;20055;-94
2023/02/11 14:09:27;;;;;;;31.10;21.05;;;;;;;;;;6350394;22;20018;-95
2023/02/11 14:12:19;;;;;;;32.72;20.58;;;;;;;;;;6322588;22;20399;-92
2023/02/11 14:15:15;;;;;;;34.45;20.67;;;;;;;;;;6347816;22;20087;-93
2023/02/11 14:17:41;;;;;;;32.47;22.05;;;;;;;;;;6331893;22;20062;-93
2023/02/11 14:20:29;;;;;;;33.45;20.92;;;;;;;;;;6330703;22;20002;-96
2023/02/11 14:23:03;;;;;;;30.95;20.45;;;;;;;;;;6359537;22;20007;-94
2023/02/11 14:26:02;;;;;;;;;;;;;;;;;;;;;
2023/02/11 14:28:34;;;;;;;31.65;20.10;;;;;;;;;;6324315;22;19991;-94
2023/02/11 14:31:16;;;;;;;31.52;20.50;;;;;;;;;;6268644;22;20031;-95
2023/02/11 14:33:55;;;;;;;32.85;20.35;;;;;;;;;;6292110;22;20006;-96
2023/02/11 14:36:42;;;;;;;32.70;19.98;;;;;;;;;;6307561;22;20019;-92
2023/02/11 14:39:42;;;;;;;;;;;;;;;;;;;;;
2023/02/11 14:42:21;;;;;;;40.80;23.20;;;;;;;;;;6324856;22;20003;-96
2023/02/11 14:45:14;;;;;;;40.05;23.38;;;;;;;;;;6275162;22;20007;-91
2023/02/11 14:48:37;;;;;;;34.15;21.95;;;;;;;;;;6250616;22;20086;-94
2023/02/11 14:51:37;;;;;;;34.80;20.88;;;;;;;;;;6173900;23;20076;-96
2023/02/11 15:00:46;;;;;;;31.63;20.25;;;;;;;;;;5971681;24;20563;-94
2023/02/11 15:10:06;;;;;;;29.92;19.52;;;;;;;;;;5942443;24;20069;-95
2023/02/11 15:13:17;;;;;;;32.35;20.08;;;;;;;;;;5936621;24;20020;-94
2023/02/11 15:16:56;;;;;;;;;;;;;;;;;;;;;
2023/02/11 15:22:38;;;;;;;41.00;26.85;;;;;;;;;;6329350;22;20076;-94
2023/02/11 15:25:26;;;;;;;38.88;24.40;;;;;;;;;;6330125;22;20011;-93
2023/02/11 15:28:19;;;;;;;32.97;20.33;;;;;;;;;;6257779;23;20015;-95
2023/02/11 15:31:00;;;;;;;34.58;21.77;;;;;;;;;;6211010;22;20067;-92
2023/02/11 15:33:29;;;;;;;35.10;22.23;;;;;;;;;;6245268;23;20027;-91
2023/02/11 15:36:00;;;;;;;37.58;22.65;;;;;;;;;;6239320;23;20008;-95
2023/02/11 15:38:39;;;;;;;34.25;21.27;;;;;;;;;;6254698;23;20019;-95
2023/02/11 15:41:06;;;;;;;34.17;21.25;;;;;;;;;;6233216;23;20009;-94
2023/02/11 15:43:45;;;;;;;32.78;21.63;;;;;;;;;;6238560;23;20012;-95
2023/02/11 15:46:25;;;;;;;34.15;21.75;;;;;;;;;;6234163;23;20005;-94
2023/02/11 15:49:22;;;;;;;;;;;;;;;;;;;;;
2023/02/11 15:51:56;;;;;;;32.53;20.15;;;;;;;;;;6262260;23;20478;-96
2023/02/11 15:54:43;;;;;;;;;;;;;;;;;;;;;
2023/02/11 15:57:18;;;;;;;64.07;29.60;;;;;;;;;;6218887;23;19996;-92
2023/02/11 15:59:51;;;;;;;49.55;26.15;;;;;;;;;;6330112;22;20003;-94
2023/02/11 16:02:43;;;;;;;42.47;24.17;;;;;;;;;;6341140;22;20019;-95
2023/02/11 16:05:30;;;;;;;56.22;26.38;;;;;;;;;;6347524;22;20029;-93
2023/02/11 16:08:33;;;;;;;51.60;25.52;;;;;;;;;;6328525;22;20251;-96
2023/02/11 16:11:37;;;;;;;36.60;20.75;;;;;;;;;;6172937;23;20001;-94
2023/02/11 16:14:20;;;;;;;33.88;19.13;;;;;;;;;;6252786;22;20008;-94
2023/02/11 16:16:50;;;;;;;32.65;19.00;;;;;;;;;;6316379;22;19998;-92
2023/02/11 16:19:46;;;;;;;34.20;20.17;;;;;;;;;;6326830;22;20012;-91
2023/02/11 16:22:42;;;;;;;31.80;19.05;;;;;;;;;;6196942;22;19999;-93
2023/02/11 16:25:39;;;;;;;;;;;;;;;;;;;;;
2023/02/11 16:28:31;;;;;;;37.10;23.02;;;;;;;;;;6325146;22;20004;-96
2023/02/11 16:30:57;;;;;;;36.95;20.98;;;;;;;;;;6322192;22;20007;-90
2023/02/11 16:37:03;;;;;;;34.85;19.38;;;;;;;;;;6349815;22;20022;-96
2023/02/11 16:40:00;;;;;;;34.33;20.65;;;;;;;;;;6332437;22;20087;-96
2023/02/11 16:45:02;;;;;;;31.67;17.52;;;;;;;;;;6357862;22;19952;-93
2023/02/11 16:48:00;;;;;;;29.38;17.83;;;;;;;;;;6333286;22;19995;-94
2023/02/11 16:50:30;;;;;;;30.48;17.45;;;;;;;;;;6351981;22;20026;-96
2023/02/11 16:52:57;;;;;;;27.33;16.90;;;;;;;;;;6304169;22;20006;-95
2023/02/11 16:55:29;;;;;;;30.65;17.15;;;;;;;;;;6329865;22;20007;-93